Terminal Aerodrome Forecast
Issued by NWS Shreveport, LA

Home | Current Version | Previous Version | Text Only | Print | Product List | Glossary On
Versions: 1 2 3 4 5 6 7 8 9 10 11 12 13
000
FTUS44 KSHV 221700 RRA
TAFTYR
TAF
KTYR 221744Z 2218/2318 04011KT P6SM SKC
      TEMPO 2218/2221 04010G17KT
     FM230100 06005KT P6SM SKC
     FM230400 08005KT P6SM SCT250
     FM230600 08005KT P6SM SCT250
     FM231300 07006KT P6SM BKN250=

USA.gov is the U.S. government's official web portal to all federal, state and local government web resources and services.